Greenview, CA

9:08 AM PDT on September 21, 2014 (GMT -0700)
Weaverville | Change Station
CLOSE
Current Station
Airport
Location: Weaverville,
Elevation: 2349 ft
Nearby Weather Stations
Active Advisory: Flash Flood Warning Active Notice: Record Report

Elev 2349 ft 40.75 °N, 122.92 °W | Updated 13 minutes ago

Partly Cloudy
Partly Cloudy
61 °F
Feels Like 61 °F
N
0
Wind Variable Wind from North

Today
High -- | Low -- °F
--% Chance of Precip.
Yesterday
High -- | Low -- °F
Precip. -- in
6:58 AM 7:10 PM
Waning Crescent, 6% visible
Pressure 30.02 in
Visibility 10.0 miles
Clouds Clear
Dew Point 50 °F
Humidity 68%
Rainfall 0.00 in
Snow Depth 0 in , 0 in , 0 in
UV 2 out of 12
Pollen 4.00 out of 12
Air Quality Not available.
Flu Activity Not available.
METAR KO54 211555Z AUTO 00000KT 10SM CLR 16/10 A3002 RMK AO1

More Conditions Fewer Conditions

Pressure 30.02 in
Visibility 10.0 miles
Clouds Clear
Dew Point 50 °F
Humidity 68%
Rainfall 0.00 in
Snow Depth 0 in , 0 in , 0 in
UV 2 out of 12
Pollen 4.00 out of 12
Air Quality Not available.
Flu Activity Not available.
METAR KO54 211555Z AUTO 00000KT 10SM CLR 16/10 A3002 RMK AO1

More Conditions Fewer Conditions

10-Day Weather Forecast

Almanac

Astronomy

Sep. 21, 2014 Rise Set
Actual Time 6:58 AM PDT 7:10 PM PDT
Civil Twilight 6:30 AM PDT 7:38 PM PDT
Nautical Twilight 5:57 AM PDT 8:10 PM PDT
Astronomical Twilight 5:24 AM PDT 8:43 PM PDT
Moon 4:35 AM PDT 5:50 PM PDT
Length of Visible Light 13h 07m
Length of Day
12h 12m
Tomorrow will be 2m 46s shorter.
Waning Crescent, 6% of the Moon is Illuminated
Today
Waning Crescent
Sep 24
New
Oct 1
First Quarter
Oct 8
Full
Oct 15
Last Quarter

Today's Extremes

State Highs State Lows

Community

WunderPhotos

Upload Photos

1,755,181 photos uploaded!

Nearby

Snow Depth

Station Depth Elevation
Sonora Pass 0 in 8800 ft
Rubicon #2 0 in 7500 ft
Squaw Valley 0 in 8200 ft
Spratt Creek 1 in 6200 ft
Leavitt Lake 1 in 9400 ft

Earthquake Activity

City Distance Mag. Time & Date
Eureka, California 83 miles 3.1 1:33 PM PDT
2014-09-20
Minimum magnitude displayed is 2.5.

Coastal Water Temperatures

Place Temperature
No Stations Reporting

Nearby Weather Stations